Time;durP1;ratioP1;P1;durP2;ratioP2;P2;SDS_P1;SDS_P2;PMS_P1;PMS_P2;Temp;Humidity;BMP_temperature;BMP_pressure;BME280_temperature;BME280_humidity;BME280_pressure;Samples;Min_cycle;Max_cycle;Signal;HPM_P1;HPM_P2
2024/01/14 00:00:23;;;;;;;76.38;26.30;;;;;;;-5.51;100.00;95896.34;2090785;28;20405;-58
2024/01/14 00:01:24;;;;;;;59.40;17.00;;;;;;;-5.54;100.00;95887.03;2090483;28;20037;-58
2024/01/14 00:02:25;;;;;;;64.15;21.25;;;;;;;-5.57;100.00;95880.25;2090536;28;20052;-58
2024/01/14 00:03:26;;;;;;;70.45;22.88;;;;;;;-5.58;100.00;95881.09;2090888;28;20040;-58
2024/01/14 00:04:27;;;;;;;76.72;25.25;;;;;;;-5.56;100.00;95876.03;2090711;28;20041;-58
2024/01/14 00:05:29;;;;;;;67.82;24.98;;;;;;;-5.58;100.00;95877.72;2090723;28;20045;-58
2024/01/14 00:06:30;;;;;;;66.68;24.25;;;;;;;-5.56;100.00;95887.03;2090597;28;20040;-58
2024/01/14 00:07:31;;;;;;;72.10;24.77;;;;;;;-5.54;100.00;95882.81;2090635;28;20041;-58
2024/01/14 00:08:32;;;;;;;64.13;22.13;;;;;;;-5.54;100.00;95892.09;2090798;28;20044;-58
2024/01/14 00:09:33;;;;;;;64.25;22.05;;;;;;;-5.56;100.00;95891.22;2090566;28;20040;-58
2024/01/14 00:10:34;;;;;;;74.72;25.88;;;;;;;-5.55;100.00;95878.59;2090889;28;20029;-58
2024/01/14 00:11:35;;;;;;;74.13;25.67;;;;;;;-5.52;100.00;95890.44;2090429;28;20029;-58
2024/01/14 00:12:37;;;;;;;69.72;25.38;;;;;;;-5.48;100.00;95886.25;2090742;28;20035;-58
2024/01/14 00:13:38;;;;;;;44.58;15.00;;;;;;;-5.48;100.00;95881.19;2090665;28;20052;-58
2024/01/14 00:14:41;;;;;;;66.32;23.77;;;;;;;-5.55;100.00;95865.09;2089965;28;20465;-58
2024/01/14 00:15:42;;;;;;;55.72;19.40;;;;;;;-5.50;100.00;95867.72;2090521;28;20045;-59
2024/01/14 00:16:43;;;;;;;67.65;22.73;;;;;;;-5.56;100.00;95856.66;2090269;28;20080;-58
2024/01/14 00:17:45;;;;;;;57.33;19.65;;;;;;;-5.52;100.00;95857.56;2090209;28;20045;-58
2024/01/14 00:18:46;;;;;;;68.68;22.70;;;;;;;-5.54;100.00;95849.94;2090549;28;20056;-58
2024/01/14 00:19:47;;;;;;;70.82;23.17;;;;;;;-5.52;100.00;95847.44;2090629;28;20480;-58
2024/01/14 00:20:48;;;;;;;78.70;26.80;;;;;;;-5.49;100.00;95839.03;2090454;28;20052;-58
2024/01/14 00:21:49;;;;;;;73.28;24.88;;;;;;;-5.49;100.00;95841.56;2090508;28;20049;-58
2024/01/14 00:22:50;;;;;;;68.93;24.10;;;;;;;-5.49;100.00;95836.50;2090434;28;20040;-58
2024/01/14 00:23:52;;;;;;;69.80;24.05;;;;;;;-5.47;100.00;95830.63;2090074;28;20514;-58
2024/01/14 00:24:53;;;;;;;74.53;25.85;;;;;;;-5.44;100.00;95839.94;2090149;28;20033;-58
2024/01/14 00:25:54;;;;;;;76.50;25.23;;;;;;;-5.43;100.00;95832.34;2090430;28;20044;-58
2024/01/14 00:26:55;;;;;;;73.82;25.75;;;;;;;-5.47;100.00;95839.91;2090416;28;20043;-58
2024/01/14 00:27:56;;;;;;;70.75;22.73;;;;;;;-5.47;100.00;95839.91;2090358;28;20496;-59
2024/01/14 00:29:01;;;;;;;64.22;23.00;;;;;;;-5.45;100.00;95840.75;2090504;28;20052;-58
2024/01/14 00:30:03;;;;;;;77.57;26.13;;;;;;;-5.44;100.00;95834.88;2090451;28;20507;-58
2024/01/14 00:31:04;;;;;;;69.30;24.38;;;;;;;-5.40;100.00;95834.94;2090452;28;20044;-58
2024/01/14 00:32:05;;;;;;;66.00;20.58;;;;;;;-5.42;100.00;95833.22;2090422;28;20049;-58
2024/01/14 00:33:07;;;;;;;61.30;22.23;;;;;;;-5.43;100.00;95821.38;2090706;28;20049;-58
2024/01/14 00:34:08;;;;;;;83.45;27.10;;;;;;;-5.41;100.00;95822.25;2090570;28;20104;-58
2024/01/14 00:35:09;;;;;;;68.57;23.52;;;;;;;-5.42;100.00;95828.16;2090537;28;20041;-58
2024/01/14 00:36:10;;;;;;;54.63;18.25;;;;;;;-5.46;100.00;95819.66;2090407;28;20048;-59
2024/01/14 00:37:11;;;;;;;75.18;25.45;;;;;;;-5.43;100.00;95817.16;2090292;28;20028;-58
2024/01/14 00:38:13;;;;;;;71.88;25.10;;;;;;;-5.41;100.00;95814.66;2090547;28;20040;-58
2024/01/14 00:39:14;;;;;;;83.45;26.40;;;;;;;-5.38;100.00;95817.22;2090041;28;20075;-58
2024/01/14 00:40:15;;;;;;;78.68;26.63;;;;;;;-5.38;100.00;95824.81;2089809;28;20488;-58
2024/01/14 00:41:16;;;;;;;74.18;23.58;;;;;;;-5.38;100.00;95818.06;2089939;28;20037;-58
2024/01/14 00:42:18;;;;;;;72.13;25.23;;;;;;;-5.37;100.00;95812.19;2090355;28;20056;-58
2024/01/14 00:43:19;;;;;;;76.90;27.55;;;;;;;-5.34;100.00;95807.16;2090400;28;20045;-58
2024/01/14 00:44:20;;;;;;;79.00;27.58;;;;;;;-5.33;100.00;95795.34;2090453;28;20044;-59
2024/01/14 00:45:21;;;;;;;72.88;23.13;;;;;;;-5.33;100.00;95798.72;2090315;28;20024;-58
2024/01/14 00:46:23;;;;;;;69.97;25.88;;;;;;;-5.33;100.00;95787.75;2090236;28;20052;-58
2024/01/14 00:47:24;;;;;;;76.93;23.95;;;;;;;-5.34;100.00;95793.66;2090328;28;20369;-59
2024/01/14 00:48:25;;;;;;;73.32;24.13;;;;;;;-5.39;100.00;95790.22;2089899;28;20049;-58
2024/01/14 00:49:26;;;;;;;76.00;25.45;;;;;;;-5.41;100.00;95794.41;2090268;28;20037;-58
2024/01/14 00:50:29;;;;;;;76.63;25.23;;;;;;;-5.40;100.00;95801.16;2090451;28;20044;-58
2024/01/14 00:51:30;;;;;;;69.03;25.33;;;;;;;-5.42;100.00;95791.03;2089351;28;20495;-58
2024/01/14 00:52:32;;;;;;;75.55;25.55;;;;;;;-5.43;100.00;95778.34;2089135;28;20045;-59
2024/01/14 00:53:33;;;;;;;71.07;24.98;;;;;;;-5.37;100.00;95786.88;2090297;28;20505;-59
2024/01/14 00:54:34;;;;;;;75.18;26.40;;;;;;;-5.34;100.00;95781.00;2090708;28;20041;-58
2024/01/14 00:55:36;;;;;;;70.10;24.83;;;;;;;-5.36;100.00;95782.66;2090406;28;20052;-58
2024/01/14 00:56:37;;;;;;;69.00;23.42;;;;;;;-5.35;100.00;95786.88;2089967;28;20049;-58
2024/01/14 00:57:38;;;;;;;74.95;25.35;;;;;;;-5.35;100.00;95782.66;2090512;28;20025;-58
2024/01/14 00:58:39;;;;;;;67.25;22.55;;;;;;;-5.36;100.00;95780.97;2090375;28;20048;-57
2024/01/14 00:59:41;;;;;;;77.85;24.75;;;;;;;-5.36;100.00;95786.03;2090239;28;20037;-58
2024/01/14 01:00:42;;;;;;;74.00;26.27;;;;;;;-5.32;100.00;95786.91;2090199;28;20037;-58
2024/01/14 01:01:43;;;;;;;70.63;24.23;;;;;;;-5.34;100.00;95786.91;2090244;28;20036;-59
2024/01/14 01:02:44;;;;;;;74.30;25.52;;;;;;;-5.32;100.00;95785.25;2090070;28;20053;-58
2024/01/14 01:03:45;;;;;;;74.53;27.25;;;;;;;-5.26;100.00;95786.16;2090123;28;20044;-58
2024/01/14 01:04:46;;;;;;;76.57;26.77;;;;;;;-5.26;100.00;95781.94;2089935;28;20041;-58
2024/01/14 01:05:47;;;;;;;72.38;28.27;;;;;;;-5.27;100.00;95782.75;2089979;28;20052;-58
2024/01/14 01:06:49;;;;;;;83.80;27.83;;;;;;;-5.27;100.00;95780.22;2090167;28;20386;-58
2024/01/14 01:07:50;;;;;;;76.45;25.77;;;;;;;-5.25;100.00;95776.03;2090055;28;20057;-58
2024/01/14 01:08:51;;;;;;;78.38;27.48;;;;;;;-5.23;100.00;95769.28;2090359;28;20510;-59
2024/01/14 01:09:52;;;;;;;74.18;24.02;;;;;;;-5.23;100.00;95766.75;2090192;28;20037;-58
2024/01/14 01:10:54;;;;;;;73.25;25.45;;;;;;;-5.25;100.00;95765.91;2090094;28;20052;-59
2024/01/14 01:11:55;;;;;;;60.78;20.45;;;;;;;-5.25;100.00;95770.97;2090175;28;20156;-58
2024/01/14 01:12:56;;;;;;;68.15;23.77;;;;;;;-5.26;100.00;95773.50;2090152;28;20036;-58
2024/01/14 01:13:57;;;;;;;73.35;24.23;;;;;;;-5.27;100.00;95770.09;2089854;28;20436;-58
2024/01/14 01:14:58;;;;;;;75.18;24.52;;;;;;;-5.27;100.00;95770.09;2090403;28;20044;-58
2024/01/14 01:15:59;;;;;;;73.15;26.55;;;;;;;-5.26;100.00;95764.22;2090298;28;20041;-58
2024/01/14 01:17:01;;;;;;;73.78;24.80;;;;;;;-5.22;100.00;95777.72;2090140;28;20044;-58
2024/01/14 01:18:02;;;;;;;60.55;22.00;;;;;;;-5.30;100.00;95764.16;2090398;28;20469;-58
2024/01/14 01:19:03;;;;;;;51.65;18.90;;;;;;;-5.33;100.00;95765.81;2089577;28;20053;-58
2024/01/14 01:20:05;;;;;;;58.25;21.88;;;;;;;-5.32;100.00;95766.66;2090119;28;20061;-58
2024/01/14 01:21:06;;;;;;;51.95;17.88;;;;;;;-5.28;100.00;95773.47;2090096;28;20049;-58
2024/01/14 01:22:07;;;;;;;68.82;23.13;;;;;;;-5.30;100.00;95771.75;2090117;28;20523;-58
2024/01/14 01:23:08;;;;;;;53.75;20.25;;;;;;;-5.30;100.00;95775.13;2090100;28;20041;-58
2024/01/14 01:24:12;;;;;;;60.88;21.85;;;;;;;-5.33;100.00;95770.03;2090164;28;20048;-58
2024/01/14 01:25:13;;;;;;;64.20;24.38;;;;;;;-5.36;100.00;95765.78;2090117;28;20045;-58
2024/01/14 01:26:14;;;;;;;71.90;24.60;;;;;;;-5.29;100.00;95773.44;2090095;28;20419;-58
2024/01/14 01:27:15;;;;;;;67.00;24.17;;;;;;;-5.28;100.00;95772.63;2090247;28;20052;-58
2024/01/14 01:28:16;;;;;;;69.63;24.48;;;;;;;-5.27;100.00;95767.56;2090133;28;20400;-58
2024/01/14 01:29:17;;;;;;;66.55;22.02;;;;;;;-5.27;100.00;95759.13;2089489;28;20040;-58
2024/01/14 01:30:19;;;;;;;71.63;24.35;;;;;;;-5.27;100.00;95749.84;2089488;28;20036;-58
2024/01/14 01:31:20;;;;;;;63.60;21.73;;;;;;;-5.27;100.00;95751.53;2090358;28;20472;-58
2024/01/14 01:32:21;;;;;;;73.50;25.75;;;;;;;-5.28;100.00;95750.69;2090339;28;20048;-58
2024/01/14 01:33:22;;;;;;;59.47;20.13;;;;;;;-5.28;100.00;95747.31;2090249;28;20047;-58
2024/01/14 01:34:24;;;;;;;78.53;26.98;;;;;;;-5.25;100.00;95744.81;2090221;28;20064;-58
2024/01/14 01:35:25;;;;;;;68.18;24.27;;;;;;;-5.29;100.00;95741.41;2090518;28;20484;-58
2024/01/14 01:36:26;;;;;;;68.25;22.95;;;;;;;-5.25;100.00;95748.16;2091996;28;20036;-58
2024/01/14 01:37:27;;;;;;;71.22;25.52;;;;;;;-5.24;100.00;95746.47;2091058;28;20485;-58
2024/01/14 01:38:29;;;;;;;69.07;23.10;;;;;;;-5.26;100.00;95738.91;2091142;28;20027;-58
2024/01/14 01:39:31;;;;;;;74.97;24.92;;;;;;;-5.28;100.00;95747.31;2091791;28;20041;-58
2024/01/14 01:40:32;;;;;;;70.28;24.77;;;;;;;-5.27;100.00;95747.31;2091064;28;20041;-58
2024/01/14 01:41:33;;;;;;;77.97;26.88;;;;;;;-5.23;100.00;95741.44;2091190;28;20045;-58
2024/01/14 01:42:34;;;;;;;75.97;25.70;;;;;;;-5.21;100.00;95752.44;2091848;28;20048;-58
2024/01/14 01:43:35;;;;;;;66.28;21.85;;;;;;;-5.21;100.00;95742.31;2091681;28;20049;-58
2024/01/14 01:44:36;;;;;;;78.53;27.45;;;;;;;-5.19;100.00;95739.78;2091817;28;20052;-58
2024/01/14 01:45:37;;;;;;;75.75;25.13;;;;;;;-5.17;100.00;95738.13;2091861;28;20036;-58
2024/01/14 01:46:39;;;;;;;71.47;24.17;;;;;;;-5.18;100.00;95739.81;2091615;28;20043;-58
2024/01/14 01:47:40;;;;;;;72.72;28.00;;;;;;;-5.17;100.00;95738.97;2091759;28;20048;-58
2024/01/14 01:48:41;;;;;;;72.55;27.92;;;;;;;-5.13;100.00;95729.75;2082514;28;20045;-58
2024/01/14 01:49:43;;;;;;;76.10;28.13;;;;;;;-5.14;100.00;95736.47;2082977;28;20049;-58
2024/01/14 01:50:44;;;;;;;70.68;27.00;;;;;;;-5.16;100.00;95734.75;2098733;28;20542;-58
2024/01/14 01:51:49;;;;;;;79.15;25.50;;;;;;;-5.13;100.00;95732.28;2098625;28;20049;-58
2024/01/14 01:52:50;;;;;;;69.45;23.10;;;;;;;-5.13;100.00;95733.13;2091170;28;20040;-58
2024/01/14 01:53:52;;;;;;;72.50;26.10;;;;;;;-5.13;100.00;95729.75;2091136;28;20041;-59
2024/01/14 01:54:54;;;;;;;62.30;22.38;;;;;;;-5.18;100.00;95726.31;2099236;28;20044;-58
2024/01/14 01:55:55;;;;;;;74.15;24.95;;;;;;;-5.20;100.00;95721.22;2082821;28;20042;-59
2024/01/14 01:56:56;;;;;;;73.22;25.25;;;;;;;-5.21;100.00;95713.59;2083077;28;20420;-59
2024/01/14 01:57:58;;;;;;;64.70;23.25;;;;;;;-5.16;100.00;95722.97;2099087;28;20048;-59
2024/01/14 01:58:59;;;;;;;50.45;18.92;;;;;;;-5.20;100.00;95717.84;2099177;28;20440;-58
2024/01/14 02:00:00;;;;;;;74.43;25.27;;;;;;;-5.22;100.00;95711.91;2082494;28;20053;-58
2024/01/14 02:01:05;;;;;;;61.10;21.98;;;;;;;-5.20;100.00;95718.69;2083213;28;20045;-58
2024/01/14 02:02:06;;;;;;;70.93;23.88;;;;;;;-5.17;100.00;95718.72;2090895;28;20060;-58
2024/01/14 02:03:09;;;;;;;73.70;25.08;;;;;;;-5.15;100.00;95716.22;2098765;28;20064;-59
2024/01/14 02:04:10;;;;;;;71.25;26.38;;;;;;;-5.12;100.00;95708.63;2091905;28;20059;-58
2024/01/14 02:05:11;;;;;;;78.35;28.40;;;;;;;-5.08;100.00;95709.50;2091030;28;20040;-58
2024/01/14 02:06:12;;;;;;;68.32;26.35;;;;;;;-5.10;100.00;95709.50;2090572;28;20524;-58
2024/01/14 02:07:14;;;;;;;66.07;22.92;;;;;;;-5.10;100.00;95712.88;2090480;28;20500;-58
2024/01/14 02:08:15;;;;;;;59.20;20.70;;;;;;;-5.15;100.00;95706.91;2090682;28;20404;-58
2024/01/14 02:09:16;;;;;;;72.07;25.77;;;;;;;-5.15;100.00;95703.53;2090841;28;20056;-58
2024/01/14 02:10:17;;;;;;;72.15;25.98;;;;;;;-5.14;100.00;95700.16;2091238;28;20037;-58
2024/01/14 02:11:19;;;;;;;67.30;22.70;;;;;;;-5.15;100.00;95696.78;2099190;28;20048;-58
2024/01/14 02:12:20;;;;;;;65.20;22.63;;;;;;;-5.18;100.00;95696.78;2082617;28;20052;-59
2024/01/14 02:13:21;;;;;;;55.58;18.45;;;;;;;-5.22;100.00;95699.25;2083264;28;20049;-58
2024/01/14 02:14:22;;;;;;;69.95;23.58;;;;;;;-5.21;100.00;95693.34;2090660;28;20053;-59
2024/01/14 02:15:24;;;;;;;56.63;20.27;;;;;;;-5.23;100.00;95692.50;2090651;28;20523;-58
2024/01/14 02:16:25;;;;;;;70.38;23.35;;;;;;;-5.22;100.00;95694.19;2090999;28;20037;-58
2024/01/14 02:17:26;;;;;;;71.18;24.83;;;;;;;-5.24;100.00;95681.53;2091010;28;20044;-58
2024/01/14 02:18:27;;;;;;;72.80;27.30;;;;;;;-5.20;100.00;95690.00;2091922;28;20047;-59
2024/01/14 02:19:28;;;;;;;78.28;27.13;;;;;;;-5.20;100.00;95680.72;2091137;28;20037;-58
2024/01/14 02:20:29;;;;;;;70.32;25.27;;;;;;;-5.18;100.00;95679.06;2091478;28;20052;-58
2024/01/14 02:21:51;;;;;;;74.55;27.92;;;;;;;-5.19;100.00;95684.94;2091556;28;20396;-58
2024/01/14 02:22:53;;;;;;;72.57;23.83;;;;;;;-5.17;100.00;95690.84;2090691;28;20071;-58
2024/01/14 02:24:00;;;;;;;74.43;25.10;;;;;;;-5.23;100.00;95670.56;2092986;28;20466;-58
2024/01/14 02:25:02;;;;;;;66.07;25.30;;;;;;;-5.21;100.00;95679.03;2090842;28;20048;-59
2024/01/14 02:26:03;;;;;;;75.35;27.00;;;;;;;-5.21;100.00;95675.63;2090947;28;20424;-58
2024/01/14 02:27:05;;;;;;;68.72;24.40;;;;;;;-5.20;100.00;95675.66;2090737;28;20052;-58
2024/01/14 02:28:06;;;;;;;64.35;21.35;;;;;;;-5.24;100.00;95676.47;2090858;28;20052;-58
2024/01/14 02:29:07;;;;;;;73.95;26.98;;;;;;;-5.26;100.00;95668.00;2091335;28;20373;-59
2024/01/14 02:30:09;;;;;;;70.28;24.70;;;;;;;-5.25;100.00;95667.16;2082460;28;20501;-58
2024/01/14 02:31:10;;;;;;;82.00;25.80;;;;;;;-5.25;100.00;95672.22;2074552;28;20052;-58
2024/01/14 02:32:12;;;;;;;76.40;27.88;;;;;;;-5.22;100.00;95669.72;2074837;28;20042;-58
2024/01/14 02:33:13;;;;;;;68.28;24.92;;;;;;;-5.23;100.00;95665.50;2090726;28;20045;-58
2024/01/14 02:34:14;;;;;;;74.40;25.80;;;;;;;-5.26;100.00;95662.94;2091076;28;20044;-58
2024/01/14 02:35:15;;;;;;;58.47;18.20;;;;;;;-5.28;100.00;95663.78;2091336;28;20056;-59
2024/01/14 02:36:16;;;;;;;70.80;22.77;;;;;;;-5.34;100.00;95665.41;2091577;28;20049;-58
2024/01/14 02:37:17;;;;;;;69.10;26.25;;;;;;;-5.32;100.00;95662.88;2091394;28;20045;-58
2024/01/14 02:38:18;;;;;;;75.15;25.05;;;;;;;-5.30;100.00;95660.38;2091597;28;20036;-59
2024/01/14 02:39:19;;;;;;;70.60;26.83;;;;;;;-5.30;100.00;95656.16;2091432;28;20465;-58
2024/01/14 02:40:21;;;;;;;71.28;27.23;;;;;;;-5.27;100.00;95662.91;2091324;28;20040;-58
2024/01/14 02:41:22;;;;;;;56.13;19.88;;;;;;;-5.28;100.00;95651.13;2091408;28;20033;-58
2024/01/14 02:42:23;;;;;;;71.57;26.10;;;;;;;-5.30;100.00;95661.22;2091436;28;20040;-59
2024/01/14 02:43:24;;;;;;;78.00;27.17;;;;;;;-5.27;100.00;95660.38;2091251;28;20477;-58
2024/01/14 02:44:25;;;;;;;75.50;27.23;;;;;;;-5.27;100.00;95661.22;2091013;28;20049;-58
2024/01/14 02:45:30;;;;;;;73.00;25.90;;;;;;;-5.28;100.00;95646.88;2090889;28;20408;-58
2024/01/14 02:46:31;;;;;;;69.30;23.33;;;;;;;-5.28;100.00;95648.59;2091228;28;20044;-58
2024/01/14 02:47:32;;;;;;;77.30;25.80;;;;;;;-5.29;100.00;95654.47;2090414;28;20049;-59
2024/01/14 02:48:33;;;;;;;73.55;26.05;;;;;;;-5.32;100.00;95647.69;2091413;28;20036;-58
2024/01/14 02:49:34;;;;;;;70.70;26.80;;;;;;;-5.33;100.00;95649.38;2091322;28;20469;-58
2024/01/14 02:50:36;;;;;;;61.92;22.13;;;;;;;-5.32;100.00;95652.75;2091270;28;20027;-59
2024/01/14 02:51:37;;;;;;;60.80;21.20;;;;;;;-5.36;100.00;95648.50;2091224;28;20045;-58
2024/01/14 02:52:38;;;;;;;65.93;23.15;;;;;;;-5.38;100.00;95650.16;2091157;28;20060;-58
2024/01/14 02:53:39;;;;;;;69.95;26.67;;;;;;;-5.37;100.00;95651.88;2091207;28;20049;-58
2024/01/14 02:54:40;;;;;;;71.90;25.23;;;;;;;-5.39;100.00;95649.34;2091130;28;20056;-58
2024/01/14 02:55:41;;;;;;;60.80;22.45;;;;;;;-5.41;100.00;95647.63;2090775;28;20029;-58
2024/01/14 02:56:43;;;;;;;55.28;21.25;;;;;;;-5.39;100.00;95645.97;2090848;28;20044;-58
2024/01/14 02:57:45;;;;;;;76.40;26.58;;;;;;;-5.35;100.00;95647.66;2090704;28;20056;-58
2024/01/14 02:58:46;;;;;;;70.32;24.98;;;;;;;-5.36;100.00;95651.88;2090896;28;20053;-58
2024/01/14 02:59:47;;;;;;;55.58;18.77;;;;;;;-5.40;100.00;95649.31;2091246;28;20445;-58
2024/01/14 03:00:48;;;;;;;76.43;27.40;;;;;;;-5.40;100.00;95649.31;2091266;28;20033;-58
2024/01/14 03:01:50;;;;;;;63.88;21.23;;;;;;;-5.39;100.00;95654.41;2090537;28;20052;-58
2024/01/14 03:02:51;;;;;;;67.53;25.00;;;;;;;-5.37;100.00;95650.19;2090609;28;20468;-58
2024/01/14 03:03:52;;;;;;;73.93;25.88;;;;;;;-5.36;100.00;95651.03;2090619;28;20045;-58
2024/01/14 03:04:53;;;;;;;80.18;27.10;;;;;;;-5.36;100.00;95653.56;2090993;28;20041;-58
2024/01/14 03:05:54;;;;;;;68.22;23.30;;;;;;;-5.37;100.00;95655.25;2090642;28;20052;-58
2024/01/14 03:06:55;;;;;;;72.28;23.70;;;;;;;-5.38;100.00;95656.06;2090611;28;20052;-58
2024/01/14 03:07:56;;;;;;;70.28;26.05;;;;;;;-5.40;100.00;95639.19;2090842;28;20037;-58
2024/01/14 03:08:57;;;;;;;68.28;23.02;;;;;;;-5.37;100.00;95656.94;2090791;28;20045;-58
2024/01/14 03:09:58;;;;;;;75.70;28.08;;;;;;;-5.39;100.00;95643.44;2090903;28;20405;-58
2024/01/14 03:10:59;;;;;;;76.90;27.80;;;;;;;-5.35;100.00;95653.56;2091108;28;20052;-58
2024/01/14 03:12:01;;;;;;;56.67;20.38;;;;;;;-5.40;100.00;95650.19;2091070;28;20045;-58
2024/01/14 03:13:02;;;;;;;70.07;24.25;;;;;;;-5.40;100.00;95651.84;2091232;28;20044;-58
2024/01/14 03:14:03;;;;;;;76.78;27.17;;;;;;;-5.43;100.00;95644.22;2091084;28;20041;-58
2024/01/14 03:15:04;;;;;;;68.47;25.35;;;;;;;-5.39;100.00;95648.50;2090640;28;20056;-59
2024/01/14 03:16:05;;;;;;;74.60;27.05;;;;;;;-5.41;100.00;95645.09;2090956;28;20041;-58
2024/01/14 03:17:07;;;;;;;75.35;27.13;;;;;;;-5.40;100.00;95647.66;2091016;28;20044;-58
2024/01/14 03:18:08;;;;;;;70.45;24.20;;;;;;;-5.41;100.00;95643.41;2091377;28;20053;-58
2024/01/14 03:19:09;;;;;;;64.22;22.38;;;;;;;-5.42;100.00;95644.25;2091204;28;20059;-58
2024/01/14 03:20:10;;;;;;;70.45;24.40;;;;;;;-5.42;100.00;95640.88;2090992;28;20047;-59
2024/01/14 03:21:18;;;;;;;56.28;20.88;;;;;;;-5.47;100.00;95632.41;2091011;28;20048;-58
2024/01/14 03:22:19;;;;;;;68.07;24.15;;;;;;;-5.46;100.00;95631.53;2091308;28;20059;-58
2024/01/14 03:23:20;;;;;;;67.60;25.27;;;;;;;-5.45;100.00;95633.22;2091277;28;20033;-58
2024/01/14 03:24:21;;;;;;;62.00;20.77;;;;;;;-5.51;100.00;95623.06;2091188;28;20029;-58
2024/01/14 03:25:23;;;;;;;68.30;23.65;;;;;;;-5.50;100.00;95633.22;2091251;28;20041;-58
2024/01/14 03:26:24;;;;;;;68.43;23.92;;;;;;;-5.49;100.00;95626.47;2090971;28;20381;-58
2024/01/14 03:27:25;;;;;;;64.80;21.88;;;;;;;-5.48;100.00;95625.63;2091032;28;20040;-58
2024/01/14 03:28:26;;;;;;;74.18;26.13;;;;;;;-5.55;100.00;95617.97;2090979;28;20059;-58
2024/01/14 03:29:27;;;;;;;74.20;28.17;;;;;;;-5.50;100.00;95620.56;2090811;28;20037;-58
2024/01/14 03:30:28;;;;;;;74.70;24.63;;;;;;;-5.50;100.00;95623.09;2091033;28;20485;-58
2024/01/14 03:31:31;;;;;;;73.88;26.02;;;;;;;-5.50;100.00;95615.50;2090534;28;20047;-58
2024/01/14 03:32:32;;;;;;;65.10;21.98;;;;;;;-5.52;100.00;95609.56;2090770;28;20070;-58
2024/01/14 03:33:34;;;;;;;66.50;23.90;;;;;;;-5.51;100.00;95612.94;2090922;28;20401;-58
2024/01/14 03:34:36;;;;;;;63.55;22.20;;;;;;;-5.51;100.00;95610.41;2090096;28;20059;-58
2024/01/14 03:35:37;;;;;;;73.82;24.85;;;;;;;-5.48;100.00;95613.84;2090347;28;20049;-59
2024/01/14 03:36:39;;;;;;;67.13;25.90;;;;;;;-5.47;100.00;95607.09;2090744;28;20045;-58
2024/01/14 03:37:40;;;;;;;76.68;26.92;;;;;;;-5.46;100.00;95609.59;2090774;28;20057;-58
2024/01/14 03:38:41;;;;;;;70.45;24.58;;;;;;;-5.47;100.00;95609.63;2091114;28;20048;-58
2024/01/14 03:39:42;;;;;;;64.22;23.13;;;;;;;-5.47;100.00;95614.69;2090783;28;20413;-58
2024/01/14 03:40:43;;;;;;;71.95;26.88;;;;;;;-5.47;100.00;95614.69;2090841;28;20049;-58
2024/01/14 03:41:44;;;;;;;75.00;27.00;;;;;;;-5.49;100.00;95612.13;2090882;28;20060;-58
2024/01/14 03:42:45;;;;;;;68.57;22.70;;;;;;;-5.49;100.00;95613.81;2091103;28;20071;-58
2024/01/14 03:43:46;;;;;;;62.75;23.17;;;;;;;-5.51;100.00;95615.47;2090541;28;20045;-59
2024/01/14 03:44:49;;;;;;;68.30;23.98;;;;;;;-5.48;100.00;95618.03;2090793;28;20056;-58
2024/01/14 03:45:50;;;;;;;70.18;25.10;;;;;;;-5.50;100.00;95618.03;2090836;28;20038;-58
2024/01/14 03:46:51;;;;;;;61.88;22.15;;;;;;;-5.49;100.00;95618.88;2090518;28;20055;-58
2024/01/14 03:47:52;;;;;;;54.83;20.77;;;;;;;-5.54;100.00;95627.25;2090715;28;20056;-58
2024/01/14 03:48:53;;;;;;;61.97;22.05;;;;;;;-5.57;100.00;95617.09;2090759;28;20048;-58
2024/01/14 03:49:54;;;;;;;61.55;21.38;;;;;;;-5.57;100.00;95626.38;2090673;28;20400;-58
2024/01/14 03:50:55;;;;;;;63.72;24.52;;;;;;;-5.55;100.00;95627.25;2090788;28;20075;-58
2024/01/14 03:51:57;;;;;;;70.30;25.73;;;;;;;-5.52;100.00;95623.91;2090785;28;20041;-59
2024/01/14 03:52:58;;;;;;;68.03;25.77;;;;;;;-5.52;100.00;95627.28;2090682;28;20037;-58
2024/01/14 03:53:59;;;;;;;68.38;24.17;;;;;;;-5.50;100.00;95627.31;2090732;28;20036;-58
2024/01/14 03:55:00;;;;;;;64.85;24.15;;;;;;;-5.51;100.00;95628.13;2090862;28;20496;-58
2024/01/14 03:56:01;;;;;;;61.30;23.73;;;;;;;-5.54;100.00;95622.19;2090706;28;20040;-58
2024/01/14 03:57:02;;;;;;;64.60;22.63;;;;;;;-5.53;100.00;95628.13;2090667;28;20041;-58
2024/01/14 03:58:04;;;;;;;64.55;22.52;;;;;;;-5.50;100.00;95627.31;2090581;28;20040;-58
2024/01/14 03:59:05;;;;;;;70.75;25.00;;;;;;;-5.51;100.00;95625.59;2090270;28;20527;-58
2024/01/14 04:00:08;;;;;;;58.10;22.48;;;;;;;-5.48;100.00;95631.56;2090389;28;20044;-58
2024/01/14 04:01:17;;;;;;;65.60;22.95;;;;;;;-5.55;100.00;95628.09;2090739;28;20064;-58
2024/01/14 04:02:18;;;;;;;66.72;22.98;;;;;;;-5.49;100.00;95634.06;2090455;28;20049;-58
2024/01/14 04:03:19;;;;;;;65.78;25.00;;;;;;;-5.48;100.00;95631.56;2090880;28;20033;-59
2024/01/14 04:04:20;;;;;;;76.63;26.02;;;;;;;-5.49;100.00;95626.47;2091406;28;20508;-58
2024/01/14 04:05:21;;;;;;;62.05;23.77;;;;;;;-5.51;100.00;95633.19;2090564;28;20044;-57
2024/01/14 04:06:23;;;;;;;60.25;20.95;;;;;;;-5.53;100.00;95625.59;2090642;28;20408;-58
2024/01/14 04:07:24;;;;;;;69.88;24.75;;;;;;;-5.51;100.00;95623.06;2090631;28;20040;-58
2024/01/14 04:08:25;;;;;;;64.68;24.40;;;;;;;-5.52;100.00;95623.91;2090776;28;20029;-58
2024/01/14 04:09:26;;;;;;;69.38;25.83;;;;;;;-5.58;100.00;95624.69;2090611;28;20052;-58
2024/01/14 04:10:27;;;;;;;61.63;23.20;;;;;;;-5.59;100.00;95626.38;2090542;28;20049;-58
2024/01/14 04:11:28;;;;;;;67.03;24.77;;;;;;;-5.56;100.00;95623.88;2090787;28;20049;-58
2024/01/14 04:12:29;;;;;;;64.95;24.58;;;;;;;-5.59;100.00;95616.25;2090573;28;20404;-58
2024/01/14 04:13:31;;;;;;;55.80;19.75;;;;;;;-5.58;100.00;95622.16;2090533;28;20037;-58
2024/01/14 04:14:32;;;;;;;66.85;25.95;;;;;;;-5.58;100.00;95624.69;2090187;28;20048;-57
2024/01/14 04:15:33;;;;;;;56.75;20.70;;;;;;;-5.60;100.00;95621.31;2090485;28;20032;-57
2024/01/14 04:16:40;;;;;;;48.00;19.15;;;;;;;-5.63;100.00;95617.06;2090547;28;20048;-58
2024/01/14 04:17:41;;;;;;;62.40;22.20;;;;;;;-5.70;100.00;95625.41;2090559;28;20041;-58
2024/01/14 04:18:42;;;;;;;54.63;20.00;;;;;;;-5.71;100.00;95621.22;2090500;28;20041;-58
2024/01/14 04:19:43;;;;;;;61.00;23.52;;;;;;;-5.68;100.00;95618.69;2090533;28;20032;-58
2024/01/14 04:20:44;;;;;;;58.05;20.83;;;;;;;-5.69;100.00;95622.06;2090536;28;20045;-58
2024/01/14 04:21:45;;;;;;;62.92;23.00;;;;;;;-5.68;100.00;95622.91;2090741;28;20405;-58
2024/01/14 04:22:46;;;;;;;54.47;19.45;;;;;;;-5.69;100.00;95621.19;2090623;28;20056;-58
2024/01/14 04:23:47;;;;;;;59.15;22.73;;;;;;;-5.67;100.00;95624.59;2090725;28;20041;-58
2024/01/14 04:24:49;;;;;;;67.65;24.98;;;;;;;-5.66;100.00;95627.16;2090639;28;20068;-58
2024/01/14 04:25:50;;;;;;;65.95;25.30;;;;;;;-5.65;100.00;95631.38;2090694;28;20393;-59
2024/01/14 04:26:51;;;;;;;59.60;23.85;;;;;;;-5.62;100.00;95625.50;2090451;28;20052;-58
2024/01/14 04:27:52;;;;;;;54.40;21.38;;;;;;;-5.63;100.00;95631.41;2090725;28;20041;-58
2024/01/14 04:28:53;;;;;;;53.75;18.42;;;;;;;-5.69;100.00;95627.13;2090389;28;20049;-58
2024/01/14 04:29:54;;;;;;;60.78;22.35;;;;;;;-5.70;100.00;95627.94;2090629;28;20041;-58
2024/01/14 04:30:56;;;;;;;63.40;23.27;;;;;;;-5.69;100.00;95624.59;2090448;28;20036;-58
2024/01/14 04:31:57;;;;;;;66.20;24.83;;;;;;;-5.67;100.00;95630.50;2090537;28;20056;-58
2024/01/14 04:32:58;;;;;;;60.25;22.92;;;;;;;-5.65;100.00;95628.84;2090705;28;20064;-58
2024/01/14 04:34:03;;;;;;;53.92;19.30;;;;;;;-5.69;100.00;95628.78;2090403;28;20487;-59
2024/01/14 04:35:04;;;;;;;44.65;17.20;;;;;;;-5.74;100.00;95626.25;2098101;28;20037;-58
2024/01/14 04:36:05;;;;;;;36.92;14.43;;;;;;;-5.77;100.00;95623.69;2097788;28;20043;-59
2024/01/14 04:37:06;;;;;;;60.35;23.08;;;;;;;-5.79;100.00;95625.34;2090032;28;20397;-58
2024/01/14 04:38:08;;;;;;;59.65;21.83;;;;;;;-5.77;100.00;95621.16;2090673;28;20041;-58
2024/01/14 04:39:10;;;;;;;52.10;19.77;;;;;;;-5.84;100.00;95610.13;2090368;28;20051;-58